Airfield :
LOGIN :

Register | Disclaimer

   EN    FR    IT 

 










Legend :    VFR   Marginal VFR   IFR   Intensive IFR   Very Intensive IFR
Visi :
Ceiling :
>= 8 km
>= 3000ft
5 to 8 km
1000 to 3000 ft
1500m to 5 km
500 to 1000 ft
800 to 1500m
200 to 500 ft
< 800m
< 200 ft
Symbols :   Thunderstorms  Fog  Heavy snow  Heavy precipitations  Wind > 20 kt
SIGMETs :     Misc.  Thunderstorms  Icing  Turbulence  Mountain Waves  Volcanic Ashes







- Airport Elevation : 52 ft
- IATA code : IOM
- Download approach charts


EGNS - Isle of Man

CURRENT METAR :
  • 200920Z 25018KT 8000 -DZ FEW006 BKN008 OVC022 12/11 Q1008 BECMG 9999 NSW SCT012

EXPIRED METARs :
  • 200850Z 25019KT 3800 DZ FEW007 BKN010 OVC025 13/11 Q1008 BECMG 9999 NSW SCT012
  • 200820Z 25020KT 9999 FEW009 BKN017 BKN028 13/11 Q1008 NOSIG
  • 200750Z 25021KT 9999 FEW008 SCT012 BKN030 12/10 Q1008 TEMPO 6000 -RADZ BKN009
  • 200720Z 25015KT 220V280 9999 FEW006 SCT009 OVC024 12/11 Q1008 TEMPO 6000 -RADZ BKN009
  • 200650Z 25017KT 220V280 9999 -RA FEW006 BKN009 OVC025 12/11 Q1008 TEMPO 8000 RADZ BKN005

TAF TAF EGNS
Valid from the 20 at 09:00 until the 20 at 18:00 UTC


200800Z 2009/2018 25020G32KT 9999 FEW006 BKN028
TEMPO 2009/2018 8000 -RADZ BKN009
PROB30
TEMPO 2009/2018 3500 RADZ BKN006
No reported NOTAMs for that airfield.



MET'MAP, your aeronautical weather chart ! - Copyright ORBIFLY December 2007 - Disclaimer

ORBIFLY MET'MAP TEAM :

Programming & Development : Alexandra Zaïnal
Concept & Development : Baudouin d'Aumeries
Co-Development & Prog : Marc-Olivier Méhu
Technical & hardware support : Manuel Goepfert

Contact : metmap@orbifly.com




SOURCES & CREDITS :

   NOAA